sim
Sign-in with your pilot id or email,
or register
Callsign
Passwort

Schedule Details

Flight Number: DLH2151
Departure: Stuttgart Airport (EDDS) at 19:20
Arrival: Munich Airport (EDDM) at 20:05
Route: Lufthansa Passenger Schedule. Enter filed route here before submitting Pirep.

Weather Information
Getting current METAR information for EDDS 010420Z VRB02KT 3500 0550E R07/P2000N BCFG SCT001 07/07 Q1008 TEMPO 0700 FG
Getting current METAR information for EDDM 010420Z 07001KT 0700 R08L/0450N R08R/0700N FG FEW001 03/03 Q1009 BECMG 0500 BKN001

Schedule Frequency

Route Map